BCS1 NZAA-YSSY
Flight info
| Callsign | BCS1 |
|---|---|
| Flight time | N/A |
| Altitude | 36000 |
| Route | VELMO DCT 38S163E DCT PLUGA DCT RIKNI N774 MARLN |
| Aircraft | B738/M-SDE2E3FGHIRWXY/LB1 |
Departure
| Time | N/A |
|---|---|
| Airport | Auckland International Airport (NZAA) |
Arrival
| Time | 2026-05-04 15:13 |
|---|---|
| Airport | Sydney Kingsford Smith International Airport (YSSY) |
| Time | Latitude | Longitude | Altitude | Speed | Heading |
|---|---|---|---|---|---|
| 2026-05-04 13:44 | -36.97654 | 161.25879 | 36263 ft | 411 kts | 282° |
| 2026-05-04 13:45 | -36.96420 | 161.18895 | 36256 ft | 414 kts | 282° |
| 2026-05-04 13:45 | -36.95162 | 161.11868 | 36261 ft | 414 kts | 282° |
| 2026-05-04 13:46 | -36.93914 | 161.04881 | 36259 ft | 412 kts | 282° |
| 2026-05-04 13:46 | -36.92673 | 160.97954 | 36254 ft | 410 kts | 282° |
| 2026-05-04 13:47 | -36.91422 | 160.91028 | 36251 ft | 411 kts | 282° |
| 2026-05-04 13:47 | -36.90158 | 160.84068 | 36251 ft | 411 kts | 282° |
| 2026-05-04 13:48 | -36.88890 | 160.77121 | 36240 ft | 410 kts | 282° |
| 2026-05-04 13:48 | -36.87632 | 160.70219 | 36246 ft | 411 kts | 282° |
| 2026-05-04 13:49 | -36.86364 | 160.63284 | 36240 ft | 410 kts | 282° |
| 2026-05-04 13:49 | -36.85732 | 160.59834 | 36118 ft | 406 kts | 282° |
| 2026-05-04 13:49 | -36.85109 | 160.56424 | 36251 ft | 408 kts | 282° |
| 2026-05-04 13:50 | -36.83821 | 160.49446 | 36236 ft | 414 kts | 282° |
| 2026-05-04 13:50 | -36.82534 | 160.42513 | 36234 ft | 410 kts | 282° |
| 2026-05-04 13:51 | -36.81260 | 160.35641 | 36229 ft | 408 kts | 282° |
| 2026-05-04 13:51 | -36.79971 | 160.28749 | 36223 ft | 411 kts | 283° |
| 2026-05-04 13:52 | -36.78025 | 160.18333 | 36227 ft | 410 kts | 283° |
| 2026-05-04 13:53 | -36.76734 | 160.11415 | 36219 ft | 411 kts | 283° |
| 2026-05-04 13:53 | -36.75438 | 160.04540 | 36232 ft | 409 kts | 283° |
| 2026-05-04 13:54 | -36.73481 | 159.94220 | 36229 ft | 408 kts | 283° |
| 2026-05-04 13:55 | -36.71516 | 159.83914 | 36219 ft | 409 kts | 283° |
| 2026-05-04 13:55 | -36.69555 | 159.73630 | 36215 ft | 408 kts | 283° |
| 2026-05-04 13:56 | -36.68243 | 159.66795 | 36217 ft | 408 kts | 283° |
| 2026-05-04 13:57 | -36.66262 | 159.56516 | 36213 ft | 408 kts | 283° |
| 2026-05-04 13:58 | -36.63614 | 159.42888 | 36205 ft | 407 kts | 283° |
| 2026-05-04 13:58 | -36.61617 | 159.32613 | 36199 ft | 406 kts | 283° |
| 2026-05-04 13:59 | -36.60952 | 159.29233 | 36440 ft | 407 kts | 284° |
| 2026-05-04 13:59 | -36.60278 | 159.25807 | 36214 ft | 407 kts | 283° |
| 2026-05-04 14:00 | -36.58300 | 159.15730 | 36198 ft | 403 kts | 283° |
| 2026-05-04 14:00 | -36.56283 | 159.05528 | 36195 ft | 406 kts | 284° |
| 2026-05-04 14:01 | -36.54941 | 158.98770 | 36196 ft | 403 kts | 284° |
| 2026-05-04 14:02 | -36.52936 | 158.88696 | 36188 ft | 402 kts | 284° |
| 2026-05-04 14:02 | -36.51580 | 158.81944 | 36186 ft | 403 kts | 284° |
| 2026-05-04 14:03 | -36.50234 | 158.75238 | 36189 ft | 403 kts | 283° |
| 2026-05-04 14:03 | -36.48880 | 158.68494 | 36176 ft | 402 kts | 284° |
| 2026-05-04 14:04 | -36.46838 | 158.58388 | 36175 ft | 403 kts | 284° |
| 2026-05-04 14:04 | -36.45477 | 158.51689 | 36169 ft | 403 kts | 284° |
| 2026-05-04 14:05 | -36.43421 | 158.41591 | 36168 ft | 402 kts | 284° |
| 2026-05-04 14:06 | -36.42053 | 158.34877 | 36158 ft | 403 kts | 284° |
| 2026-05-04 14:06 | -36.40671 | 158.28149 | 36162 ft | 403 kts | 284° |
| 2026-05-04 14:07 | -36.39292 | 158.21464 | 36162 ft | 402 kts | 284° |
| 2026-05-04 14:07 | -36.37916 | 158.14784 | 36157 ft | 401 kts | 284° |
| 2026-05-04 14:08 | -36.36524 | 158.08048 | 36149 ft | 403 kts | 284° |
| 2026-05-04 14:08 | -36.35129 | 158.01335 | 36149 ft | 402 kts | 284° |
| 2026-05-04 14:09 | -36.33054 | 157.91348 | 36150 ft | 400 kts | 284° |
| 2026-05-04 14:10 | -36.30959 | 157.81340 | 36146 ft | 403 kts | 284° |
| 2026-05-04 14:10 | -36.29549 | 157.74657 | 36144 ft | 401 kts | 284° |
| 2026-05-04 14:11 | -36.28140 | 157.67953 | 36144 ft | 401 kts | 285° |
| 2026-05-04 14:11 | -36.26014 | 157.57904 | 36138 ft | 403 kts | 284° |
| 2026-05-04 14:12 | -36.24590 | 157.51195 | 36137 ft | 401 kts | 284° |
| 2026-05-04 14:13 | -36.22458 | 157.41191 | 36140 ft | 403 kts | 285° |
| 2026-05-04 14:13 | -36.21013 | 157.34462 | 36134 ft | 403 kts | 285° |
| 2026-05-04 14:14 | -36.19594 | 157.27830 | 36134 ft | 402 kts | 285° |
| 2026-05-04 14:14 | -36.17439 | 157.17812 | 36124 ft | 402 kts | 285° |
| 2026-05-04 14:15 | -36.14560 | 157.04503 | 36364 ft | 402 kts | 285° |
| 2026-05-04 14:16 | -36.13098 | 156.97795 | 36127 ft | 401 kts | 285° |
| 2026-05-04 14:16 | -36.12363 | 156.94420 | 36130 ft | 397 kts | 285° |
| 2026-05-04 14:17 | -36.10918 | 156.87801 | 35956 ft | 401 kts | 285° |
| 2026-05-04 14:17 | -36.10187 | 156.84459 | 36134 ft | 402 kts | 285° |
| 2026-05-04 14:18 | -36.07975 | 156.74352 | 36120 ft | 402 kts | 285° |
| 2026-05-04 14:19 | -36.05047 | 156.61098 | 36112 ft | 404 kts | 285° |
| 2026-05-04 14:19 | -36.03568 | 156.54405 | 36122 ft | 402 kts | 285° |
| 2026-05-04 14:20 | -36.02099 | 156.47786 | 36109 ft | 402 kts | 285° |
| 2026-05-04 14:20 | -36.00619 | 156.41154 | 36106 ft | 402 kts | 285° |
| 2026-05-04 14:21 | -35.98394 | 156.31221 | 36112 ft | 400 kts | 286° |
| 2026-05-04 14:21 | -35.96916 | 156.24638 | 36103 ft | 400 kts | 285° |
| 2026-05-04 14:22 | -35.95431 | 156.18022 | 36108 ft | 401 kts | 286° |
| 2026-05-04 14:22 | -35.93937 | 156.11423 | 36091 ft | 398 kts | 286° |
| 2026-05-04 14:23 | -35.91714 | 156.01570 | 36085 ft | 399 kts | 286° |
| 2026-05-04 14:24 | -35.90225 | 155.95042 | 36084 ft | 399 kts | 286° |
| 2026-05-04 14:24 | -35.88729 | 155.88455 | 36087 ft | 397 kts | 286° |
| 2026-05-04 14:25 | -35.87238 | 155.81947 | 36096 ft | 398 kts | 286° |
| 2026-05-04 14:25 | -35.84989 | 155.72144 | 36088 ft | 398 kts | 286° |
| 2026-05-04 14:26 | -35.83485 | 155.65590 | 36081 ft | 395 kts | 286° |
| 2026-05-04 14:26 | -35.81994 | 155.59113 | 36066 ft | 395 kts | 286° |
| 2026-05-04 14:27 | -35.80487 | 155.52609 | 36089 ft | 397 kts | 286° |
| 2026-05-04 14:27 | -35.78976 | 155.46077 | 36055 ft | 396 kts | 286° |
| 2026-05-04 14:28 | -35.77468 | 155.39621 | 36072 ft | 394 kts | 286° |
| 2026-05-04 14:28 | -35.75961 | 155.33156 | 36060 ft | 395 kts | 287° |
| 2026-05-04 14:29 | -35.72935 | 155.20200 | 36071 ft | 393 kts | 286° |
| 2026-05-04 14:30 | -35.71426 | 155.13780 | 36070 ft | 393 kts | 287° |
| 2026-05-04 14:31 | -35.69150 | 155.04132 | 36056 ft | 392 kts | 287° |
| 2026-05-04 14:32 | -35.66101 | 154.91267 | 36046 ft | 390 kts | 286° |
| 2026-05-04 14:32 | -35.64598 | 154.84935 | 36061 ft | 390 kts | 287° |
| 2026-05-04 14:33 | -35.63077 | 154.78555 | 36043 ft | 390 kts | 287° |
| 2026-05-04 14:33 | -35.61428 | 154.72208 | 36054 ft | 390 kts | 292° |
| 2026-05-04 14:34 | -35.58863 | 154.66389 | 36039 ft | 392 kts | 304° |
| 2026-05-04 14:34 | -35.55355 | 154.61276 | 36042 ft | 392 kts | 307° |
| 2026-05-04 14:35 | -35.51814 | 154.56161 | 36048 ft | 392 kts | 307° |
| 2026-05-04 14:35 | -35.48299 | 154.51090 | 36033 ft | 391 kts | 307° |
| 2026-05-04 14:36 | -35.44783 | 154.46057 | 36034 ft | 390 kts | 307° |
| 2026-05-04 14:36 | -35.41235 | 154.41000 | 36059 ft | 390 kts | 307° |
| 2026-05-04 14:37 | -35.37715 | 154.35982 | 36039 ft | 390 kts | 307° |
| 2026-05-04 14:37 | -35.34185 | 154.30951 | 36048 ft | 390 kts | 308° |
| 2026-05-04 14:38 | -35.30661 | 154.25960 | 36043 ft | 387 kts | 308° |
| 2026-05-04 14:38 | -35.27148 | 154.20976 | 36045 ft | 387 kts | 308° |
| 2026-05-04 14:39 | -35.23649 | 154.16022 | 36038 ft | 388 kts | 308° |
| 2026-05-04 14:39 | -35.20112 | 154.11053 | 36050 ft | 386 kts | 308° |
| 2026-05-04 14:40 | -35.14876 | 154.03644 | 36050 ft | 385 kts | 307° |
| 2026-05-04 14:40 | -35.11372 | 153.98708 | 36048 ft | 385 kts | 307° |
| 2026-05-04 14:41 | -35.07850 | 153.93758 | 36051 ft | 384 kts | 308° |
| 2026-05-04 14:42 | -35.00853 | 153.83923 | 36042 ft | 383 kts | 308° |
| 2026-05-04 14:42 | -34.97361 | 153.79036 | 36032 ft | 385 kts | 308° |
| 2026-05-04 14:43 | -34.93847 | 153.74129 | 36040 ft | 386 kts | 308° |
| 2026-05-04 14:43 | -34.90328 | 153.69206 | 36043 ft | 384 kts | 308° |
| 2026-05-04 14:44 | -34.86818 | 153.64336 | 36035 ft | 382 kts | 308° |
| 2026-05-04 14:44 | -34.83337 | 153.59491 | 36044 ft | 384 kts | 307° |
| 2026-05-04 14:45 | -34.79837 | 153.54605 | 36032 ft | 383 kts | 308° |
| 2026-05-04 14:45 | -34.76331 | 153.49750 | 36039 ft | 381 kts | 308° |
| 2026-05-04 14:46 | -34.72856 | 153.44928 | 36034 ft | 381 kts | 308° |
| 2026-05-04 14:46 | -34.69335 | 153.40065 | 36038 ft | 381 kts | 308° |
| 2026-05-04 14:47 | -34.65849 | 153.35251 | 36035 ft | 382 kts | 308° |
| 2026-05-04 14:47 | -34.62349 | 153.30417 | 36035 ft | 382 kts | 308° |
| 2026-05-04 14:48 | -34.58838 | 153.25583 | 36034 ft | 382 kts | 309° |
| 2026-05-04 14:48 | -34.55340 | 153.20776 | 36034 ft | 380 kts | 308° |
| 2026-05-04 14:49 | -34.51835 | 153.15953 | 36032 ft | 379 kts | 308° |
| 2026-05-04 14:49 | -34.48365 | 153.11188 | 35966 ft | 377 kts | 308° |
| 2026-05-04 14:50 | -34.46635 | 153.08813 | 35296 ft | 380 kts | 308° |
| 2026-05-04 14:50 | -34.44899 | 153.06429 | 34675 ft | 379 kts | 308° |
| 2026-05-04 14:50 | -34.43165 | 153.04054 | 34099 ft | 378 kts | 309° |
| 2026-05-04 14:50 | -34.41431 | 153.01671 | 33481 ft | 378 kts | 309° |
| 2026-05-04 14:51 | -34.39699 | 152.99284 | 32759 ft | 385 kts | 309° |
| 2026-05-04 14:51 | -34.37901 | 152.96809 | 32090 ft | 394 kts | 310° |
| 2026-05-04 14:51 | -34.36099 | 152.94338 | 31415 ft | 395 kts | 310° |
| 2026-05-04 14:51 | -34.34275 | 152.91835 | 30722 ft | 394 kts | 311° |
| 2026-05-04 14:52 | -34.32467 | 152.89355 | 30021 ft | 402 kts | 311° |
| 2026-05-04 14:52 | -34.30600 | 152.86804 | 29226 ft | 409 kts | 312° |
| 2026-05-04 14:52 | -34.28710 | 152.84235 | 28397 ft | 407 kts | 312° |
| 2026-05-04 14:52 | -34.26850 | 152.81734 | 27570 ft | 406 kts | 312° |
| 2026-05-04 14:53 | -34.24967 | 152.79190 | 26739 ft | 405 kts | 312° |
| 2026-05-04 14:53 | -34.23101 | 152.76659 | 25932 ft | 409 kts | 312° |
| 2026-05-04 14:53 | -34.21209 | 152.74091 | 25233 ft | 409 kts | 313° |
| 2026-05-04 14:53 | -34.19325 | 152.71539 | 24627 ft | 401 kts | 313° |
| 2026-05-04 14:54 | -34.17512 | 152.69086 | 23998 ft | 395 kts | 313° |
| 2026-05-04 14:54 | -34.15683 | 152.66606 | 23382 ft | 388 kts | 313° |
| 2026-05-04 14:54 | -34.13905 | 152.64203 | 22773 ft | 391 kts | 313° |
| 2026-05-04 14:54 | -34.12085 | 152.61743 | 22098 ft | 395 kts | 312° |
| 2026-05-04 14:55 | -34.10385 | 152.59157 | 21489 ft | 390 kts | 307° |
| 2026-05-04 14:55 | -34.09045 | 152.56393 | 20898 ft | 387 kts | 297° |
| 2026-05-04 14:55 | -34.08162 | 152.53343 | 20274 ft | 386 kts | 288° |
| 2026-05-04 14:55 | -34.07664 | 152.50166 | 19669 ft | 391 kts | 282° |
| 2026-05-04 14:56 | -34.07338 | 152.46893 | 18997 ft | 394 kts | 280° |
| 2026-05-04 14:56 | -34.07027 | 152.43654 | 18341 ft | 389 kts | 280° |
| 2026-05-04 14:56 | -34.06713 | 152.40454 | 17719 ft | 384 kts | 280° |
| 2026-05-04 14:56 | -34.06409 | 152.37295 | 17113 ft | 379 kts | 280° |
| 2026-05-04 14:57 | -34.06110 | 152.34146 | 16507 ft | 373 kts | 280° |
| 2026-05-04 14:57 | -34.05816 | 152.31096 | 15920 ft | 368 kts | 279° |
| 2026-05-04 14:57 | -34.05527 | 152.28005 | 15321 ft | 372 kts | 279° |
| 2026-05-04 14:57 | -34.05244 | 152.24940 | 14727 ft | 368 kts | 279° |
| 2026-05-04 14:58 | -34.04957 | 152.21921 | 14143 ft | 363 kts | 279° |
| 2026-05-04 14:58 | -34.04659 | 152.18887 | 13549 ft | 358 kts | 279° |
| 2026-05-04 14:58 | -34.04366 | 152.15912 | 12978 ft | 361 kts | 279° |
| 2026-05-04 14:58 | -34.04076 | 152.12906 | 12389 ft | 362 kts | 279° |
| 2026-05-04 14:59 | -34.03794 | 152.09917 | 11792 ft | 358 kts | 279° |
| 2026-05-04 14:59 | -34.03512 | 152.06941 | 11203 ft | 352 kts | 279° |
| 2026-05-04 14:59 | -34.02938 | 152.01184 | 10418 ft | 332 kts | 279° |
| 2026-05-04 15:00 | -34.02676 | 151.98526 | 10344 ft | 309 kts | 280° |
| 2026-05-04 15:00 | -34.02427 | 151.96037 | 10287 ft | 285 kts | 280° |
| 2026-05-04 15:00 | -34.02195 | 151.93765 | 10174 ft | 267 kts | 281° |
| 2026-05-04 15:01 | -34.01718 | 151.89288 | 9856 ft | 269 kts | 280° |
| 2026-05-04 15:01 | -34.01498 | 151.87051 | 9531 ft | 265 kts | 280° |
| 2026-05-04 15:01 | -34.01276 | 151.84853 | 9201 ft | 262 kts | 280° |
| 2026-05-04 15:01 | -34.01056 | 151.82718 | 8881 ft | 259 kts | 280° |
| 2026-05-04 15:02 | -34.00835 | 151.80566 | 8572 ft | 255 kts | 280° |
| 2026-05-04 15:02 | -34.00604 | 151.78482 | 8258 ft | 252 kts | 284° |
| 2026-05-04 15:02 | -34.00017 | 151.76524 | 7960 ft | 245 kts | 298° |
| 2026-05-04 15:02 | -33.99253 | 151.74728 | 7653 ft | 242 kts | 298° |
| 2026-05-04 15:03 | -33.98504 | 151.72916 | 7358 ft | 240 kts | 298° |
| 2026-05-04 15:03 | -33.97765 | 151.71112 | 7061 ft | 237 kts | 298° |
| 2026-05-04 15:03 | -33.97026 | 151.69307 | 6779 ft | 244 kts | 297° |
| 2026-05-04 15:03 | -33.96265 | 151.67458 | 6463 ft | 243 kts | 297° |
| 2026-05-04 15:04 | -33.95509 | 151.65619 | 6152 ft | 240 kts | 297° |
| 2026-05-04 15:04 | -33.94781 | 151.63844 | 5854 ft | 237 kts | 297° |
| 2026-05-04 15:04 | -33.94055 | 151.62068 | 5558 ft | 234 kts | 297° |
| 2026-05-04 15:04 | -33.93325 | 151.60295 | 5269 ft | 240 kts | 298° |
| 2026-05-04 15:05 | -33.92584 | 151.58489 | 5007 ft | 237 kts | 297° |
| 2026-05-04 15:05 | -33.91862 | 151.56737 | 4959 ft | 236 kts | 297° |
| 2026-05-04 15:05 | -33.91119 | 151.54944 | 4713 ft | 239 kts | 297° |
| 2026-05-04 15:05 | -33.90403 | 151.53192 | 4261 ft | 227 kts | 297° |
| 2026-05-04 15:06 | -33.89713 | 151.51521 | 3809 ft | 218 kts | 297° |
| 2026-05-04 15:06 | -33.89060 | 151.49933 | 3511 ft | 205 kts | 298° |
| 2026-05-04 15:06 | -33.88443 | 151.48434 | 3452 ft | 192 kts | 298° |
| 2026-05-04 15:07 | -33.87638 | 151.45605 | 3321 ft | 176 kts | 266° |
| 2026-05-04 15:07 | -33.87885 | 151.44209 | 3286 ft | 170 kts | 264° |
| 2026-05-04 15:07 | -33.88113 | 151.42827 | 3187 ft | 166 kts | 262° |
| 2026-05-04 15:07 | -33.88400 | 151.41470 | 3144 ft | 170 kts | 260° |
| 2026-05-04 15:08 | -33.88718 | 151.40097 | 3076 ft | 168 kts | 259° |
| 2026-05-04 15:08 | -33.89037 | 151.38745 | 3023 ft | 169 kts | 258° |
| 2026-05-04 15:08 | -33.89364 | 151.37381 | 2977 ft | 168 kts | 258° |
| 2026-05-04 15:08 | -33.89685 | 151.36037 | 2910 ft | 167 kts | 258° |
| 2026-05-04 15:09 | -33.89991 | 151.34755 | 2709 ft | 156 kts | 259° |
| 2026-05-04 15:09 | -33.90295 | 151.33478 | 2513 ft | 157 kts | 259° |
| 2026-05-04 15:09 | -33.90591 | 151.32239 | 2303 ft | 155 kts | 258° |
| 2026-05-04 15:10 | -33.91179 | 151.29781 | 1886 ft | 146 kts | 257° |
| 2026-05-04 15:10 | -33.91458 | 151.28615 | 1682 ft | 142 kts | 257° |
| 2026-05-04 15:10 | -33.91974 | 151.26450 | 1325 ft | 132 kts | 256° |
| 2026-05-04 15:11 | -33.92225 | 151.25394 | 1144 ft | 130 kts | 256° |
| 2026-05-04 15:11 | -33.92476 | 151.24342 | 976 ft | 130 kts | 256° |
| 2026-05-04 15:11 | -33.92728 | 151.23303 | 800 ft | 130 kts | 255° |
| 2026-05-04 15:11 | -33.92969 | 151.22270 | 609 ft | 127 kts | 255° |
| 2026-05-04 15:12 | -33.93221 | 151.21242 | 462 ft | 129 kts | 254° |
| 2026-05-04 15:12 | -33.93470 | 151.20195 | 282 ft | 130 kts | 254° |
| 2026-05-04 15:12 | -33.93715 | 151.19162 | 122 ft | 128 kts | 253° |
| 2026-05-04 15:12 | -33.93957 | 151.18144 | 20 ft | 127 kts | 254° |
| 2026-05-04 15:13 | -33.94117 | 151.17465 | 16 ft | 43 kts | 255° |
| 2026-05-04 15:13 | -33.94136 | 151.17287 | 20 ft | 13 kts | 286° |
| 2026-05-04 15:13 | -33.94075 | 151.17239 | 21 ft | 9 kts | 350° |
| 2026-05-04 15:13 | -33.94012 | 151.17204 | 21 ft | 10 kts | 312° |
| 2026-05-04 15:14 | -33.93974 | 151.17133 | 23 ft | 10 kts | 297° |
| 2026-05-04 15:14 | -33.93924 | 151.17090 | 24 ft | 8 kts | 345° |
| 2026-05-04 15:14 | -33.93909 | 151.17050 | 25 ft | 5 kts | 262° |
| 2026-05-04 15:14 | -33.93920 | 151.17011 | 25 ft | 4 kts | 253° |
| 2026-05-04 15:15 | -33.93927 | 151.16980 | 26 ft | 2 kts | 255° |
| 2026-05-04 15:15 | -33.93928 | 151.16975 | 26 ft | 0 kts | 255° |